Terminal Aerodrome Forecast
Issued by NWS Jackson, KY

Home | Current Version | Previous Version | Text Only | Print | Product List | Glossary On
Versions: 1 2 3 4 5 6 7 8 9 10 11 12 13 14 15 16 17 18 19 20 21 22 23
267
FTUS43 KJKL 301735
TAFLOZ
TAF
KLOZ 301735Z 3018/3118 25006KT P6SM VCTS SCT025 BKN050CB
     FM310100 VRB03KT P6SM SCT025 BKN250
     FM310500 00000KT 5SM BR SCT001 BKN250
     FM310900 00000KT 2SM BR SCT001 BKN050
     FM311500 25004KT P6SM SCT015 BKN050=

USA.gov is the U.S. government's official web portal to all federal, state and local government web resources and services.